sensor_id;sensor_type;location;lat;lon;timestamp;pressure;altitude;pressure_sealevel;temperature;humidity
23303;BME280;11820;48.738;9.092;2023-02-16T00:01:13;97262.22;;;4.54;nan
23303;BME280;11820;48.738;9.092;2023-02-16T00:03:39;97259.00;;;4.61;nan
23303;BME280;11820;48.738;9.092;2023-02-16T00:06:05;97255.13;;;4.76;nan
23303;BME280;11820;48.738;9.092;2023-02-16T00:08:30;97252.31;;;4.79;nan
23303;BME280;11820;48.738;9.092;2023-02-16T00:10:55;97251.47;;;4.60;nan
23303;BME280;11820;48.738;9.092;2023-02-16T00:13:39;97248.78;;;4.71;nan
23303;BME280;11820;48.738;9.092;2023-02-16T00:16:19;97255.38;;;4.64;nan
23303;BME280;11820;48.738;9.092;2023-02-16T00:18:45;97250.78;;;4.48;nan
23303;BME280;11820;48.738;9.092;2023-02-16T00:21:10;97260.63;;;4.13;nan
23303;BME280;11820;48.738;9.092;2023-02-16T00:23:36;97263.16;;;4.04;nan
23303;BME280;11820;48.738;9.092;2023-02-16T00:26:02;97257.06;;;4.25;nan
23303;BME280;11820;48.738;9.092;2023-02-16T00:28:28;97259.06;;;4.31;nan
23303;BME280;11820;48.738;9.092;2023-02-16T00:30:53;97261.88;;;4.19;nan
23303;BME280;11820;48.738;9.092;2023-02-16T00:33:20;97264.28;;;4.20;nan
23303;BME280;11820;48.738;9.092;2023-02-16T00:35:46;97264.56;;;4.27;nan
23303;BME280;11820;48.738;9.092;2023-02-16T00:38:12;97275.06;;;4.24;nan
23303;BME280;11820;48.738;9.092;2023-02-16T00:40:38;97270.53;;;4.27;nan
23303;BME280;11820;48.738;9.092;2023-02-16T00:43:04;97267.63;;;4.11;nan
23303;BME280;11820;48.738;9.092;2023-02-16T00:45:32;97269.16;;;4.33;nan
23303;BME280;11820;48.738;9.092;2023-02-16T00:48:00;97270.56;;;4.46;nan
23303;BME280;11820;48.738;9.092;2023-02-16T00:50:29;97271.03;;;4.61;nan
23303;BME280;11820;48.738;9.092;2023-02-16T00:52:56;97263.88;;;4.73;nan
23303;BME280;11820;48.738;9.092;2023-02-16T00:55:28;97268.19;;;4.82;nan
23303;BME280;11820;48.738;9.092;2023-02-16T00:58:04;97260.81;;;4.98;nan
23303;BME280;11820;48.738;9.092;2023-02-16T01:00:35;97251.50;;;5.07;nan
23303;BME280;11820;48.738;9.092;2023-02-16T01:03:06;97259.59;;;5.21;nan
23303;BME280;11820;48.738;9.092;2023-02-16T01:05:33;97266.59;;;5.29;nan
23303;BME280;11820;48.738;9.092;2023-02-16T01:07:58;97259.84;;;5.37;nan
23303;BME280;11820;48.738;9.092;2023-02-16T01:10:42;97260.66;;;5.38;nan
23303;BME280;11820;48.738;9.092;2023-02-16T01:13:24;97260.22;;;5.52;nan
23303;BME280;11820;48.738;9.092;2023-02-16T01:15:50;97259.69;;;5.39;nan
23303;BME280;11820;48.738;9.092;2023-02-16T01:18:17;97265.94;;;5.08;nan
23303;BME280;11820;48.738;9.092;2023-02-16T01:20:43;97259.31;;;4.77;nan
23303;BME280;11820;48.738;9.092;2023-02-16T01:23:09;97274.41;;;4.80;nan
23303;BME280;11820;48.738;9.092;2023-02-16T01:25:36;97271.19;;;4.78;nan
23303;BME280;11820;48.738;9.092;2023-02-16T01:28:01;97276.91;;;4.12;nan
23303;BME280;11820;48.738;9.092;2023-02-16T01:30:27;97273.34;;;3.94;nan
23303;BME280;11820;48.738;9.092;2023-02-16T01:32:53;97269.91;;;4.14;nan
23303;BME280;11820;48.738;9.092;2023-02-16T01:35:21;97270.16;;;4.51;nan
23303;BME280;11820;48.738;9.092;2023-02-16T01:37:47;97261.44;;;4.72;nan
23303;BME280;11820;48.738;9.092;2023-02-16T01:40:34;97260.13;;;4.87;nan
23303;BME280;11820;48.738;9.092;2023-02-16T01:43:09;97252.56;;;4.95;nan
23303;BME280;11820;48.738;9.092;2023-02-16T01:45:42;97250.94;;;4.94;nan
23303;BME280;11820;48.738;9.092;2023-02-16T01:48:20;97246.38;;;4.88;nan
23303;BME280;11820;48.738;9.092;2023-02-16T01:53:43;97253.88;;;4.52;nan
23303;BME280;11820;48.738;9.092;2023-02-16T01:56:17;97246.84;;;4.44;nan
23303;BME280;11820;48.738;9.092;2023-02-16T01:58:48;97241.47;;;4.47;nan
23303;BME280;11820;48.738;9.092;2023-02-16T02:01:37;97234.44;;;4.30;nan
23303;BME280;11820;48.738;9.092;2023-02-16T02:04:15;97242.72;;;4.13;nan
23303;BME280;11820;48.738;9.092;2023-02-16T02:07:02;97236.91;;;4.11;nan
23303;BME280;11820;48.738;9.092;2023-02-16T02:09:46;97239.19;;;4.05;nan
23303;BME280;11820;48.738;9.092;2023-02-16T02:12:19;97226.78;;;4.00;nan
23303;BME280;11820;48.738;9.092;2023-02-16T02:14:48;97228.34;;;4.22;nan
23303;BME280;11820;48.738;9.092;2023-02-16T02:17:16;97218.34;;;4.77;nan
23303;BME280;11820;48.738;9.092;2023-02-16T02:30:46;97233.41;;;4.12;nan
23303;BME280;11820;48.738;9.092;2023-02-16T02:33:49;97226.97;;;3.78;nan
23303;BME280;11820;48.738;9.092;2023-02-16T02:36:29;97226.09;;;3.68;nan
23303;BME280;11820;48.738;9.092;2023-02-16T02:41:50;97223.38;;;3.60;nan
23303;BME280;11820;48.738;9.092;2023-02-16T02:44:33;97219.47;;;3.56;nan
23303;BME280;11820;48.738;9.092;2023-02-16T02:47:02;97223.94;;;3.64;nan
23303;BME280;11820;48.738;9.092;2023-02-16T02:49:27;97213.81;;;3.92;nan
23303;BME280;11820;48.738;9.092;2023-02-16T02:51:52;97214.13;;;3.99;nan
23303;BME280;11820;48.738;9.092;2023-02-16T02:57:09;97224.63;;;3.66;nan
23303;BME280;11820;48.738;9.092;2023-02-16T02:59:59;97218.56;;;3.37;nan
23303;BME280;11820;48.738;9.092;2023-02-16T03:02:46;97218.09;;;3.82;nan
23303;BME280;11820;48.738;9.092;2023-02-16T03:05:14;97217.50;;;4.48;nan
23303;BME280;11820;48.738;9.092;2023-02-16T03:07:41;97220.75;;;3.71;nan
23303;BME280;11820;48.738;9.092;2023-02-16T03:10:14;97222.03;;;3.56;nan
23303;BME280;11820;48.738;9.092;2023-02-16T03:13:00;97218.28;;;3.60;nan
23303;BME280;11820;48.738;9.092;2023-02-16T03:15:27;97207.66;;;3.95;nan
23303;BME280;11820;48.738;9.092;2023-02-16T03:17:55;97207.06;;;4.21;nan
23303;BME280;11820;48.738;9.092;2023-02-16T03:20:41;97203.22;;;4.74;nan
23303;BME280;11820;48.738;9.092;2023-02-16T03:23:26;97199.56;;;5.24;nan
23303;BME280;11820;48.738;9.092;2023-02-16T03:26:12;97200.97;;;5.45;nan
23303;BME280;11820;48.738;9.092;2023-02-16T03:28:57;97200.22;;;5.72;nan
23303;BME280;11820;48.738;9.092;2023-02-16T03:31:40;97198.91;;;5.12;nan
23303;BME280;11820;48.738;9.092;2023-02-16T03:34:06;97203.59;;;4.41;nan
23303;BME280;11820;48.738;9.092;2023-02-16T03:36:33;97211.94;;;4.24;nan
23303;BME280;11820;48.738;9.092;2023-02-16T03:39:00;97214.16;;;4.08;nan
23303;BME280;11820;48.738;9.092;2023-02-16T03:41:30;97216.22;;;3.84;nan
23303;BME280;11820;48.738;9.092;2023-02-16T03:43:56;97215.66;;;3.71;nan
23303;BME280;11820;48.738;9.092;2023-02-16T03:46:22;97212.88;;;3.84;nan
23303;BME280;11820;48.738;9.092;2023-02-16T03:48:47;97218.22;;;3.71;nan
23303;BME280;11820;48.738;9.092;2023-02-16T03:51:12;97218.44;;;3.98;nan
23303;BME280;11820;48.738;9.092;2023-02-16T03:53:38;97216.25;;;4.33;nan
23303;BME280;11820;48.738;9.092;2023-02-16T03:56:03;97218.84;;;4.52;nan
23303;BME280;11820;48.738;9.092;2023-02-16T03:58:29;97216.41;;;4.60;nan
23303;BME280;11820;48.738;9.092;2023-02-16T04:00:54;97219.41;;;5.12;nan
23303;BME280;11820;48.738;9.092;2023-02-16T04:03:19;97218.56;;;5.21;nan
23303;BME280;11820;48.738;9.092;2023-02-16T04:05:45;97221.22;;;5.48;nan
23303;BME280;11820;48.738;9.092;2023-02-16T04:08:10;97224.53;;;5.68;nan
23303;BME280;11820;48.738;9.092;2023-02-16T04:10:36;97222.78;;;5.78;nan
23303;BME280;11820;48.738;9.092;2023-02-16T04:13:02;97224.63;;;5.85;nan
23303;BME280;11820;48.738;9.092;2023-02-16T04:15:29;97226.25;;;5.86;nan
23303;BME280;11820;48.738;9.092;2023-02-16T04:17:54;97227.91;;;5.78;nan
23303;BME280;11820;48.738;9.092;2023-02-16T04:20:23;97225.72;;;5.92;nan
23303;BME280;11820;48.738;9.092;2023-02-16T04:22:49;97229.09;;;5.83;nan
23303;BME280;11820;48.738;9.092;2023-02-16T04:25:16;97225.59;;;5.10;nan
23303;BME280;11820;48.738;9.092;2023-02-16T04:27:42;97223.03;;;5.10;nan
23303;BME280;11820;48.738;9.092;2023-02-16T04:30:18;97229.84;;;5.57;nan
23303;BME280;11820;48.738;9.092;2023-02-16T04:32:44;97235.59;;;5.78;nan
23303;BME280;11820;48.738;9.092;2023-02-16T04:35:09;97228.44;;;5.81;nan
23303;BME280;11820;48.738;9.092;2023-02-16T04:37:35;97228.44;;;5.72;nan
23303;BME280;11820;48.738;9.092;2023-02-16T04:40:00;97230.91;;;5.54;nan
23303;BME280;11820;48.738;9.092;2023-02-16T04:42:26;97231.28;;;5.69;nan
23303;BME280;11820;48.738;9.092;2023-02-16T04:44:51;97231.38;;;5.86;nan
23303;BME280;11820;48.738;9.092;2023-02-16T04:47:17;97230.41;;;5.97;nan
23303;BME280;11820;48.738;9.092;2023-02-16T04:49:42;97237.28;;;6.06;nan
23303;BME280;11820;48.738;9.092;2023-02-16T04:52:08;97235.66;;;6.05;nan
23303;BME280;11820;48.738;9.092;2023-02-16T04:54:33;97228.75;;;6.05;nan
23303;BME280;11820;48.738;9.092;2023-02-16T04:56:59;97222.09;;;6.12;nan
23303;BME280;11820;48.738;9.092;2023-02-16T04:59:25;97223.88;;;6.12;nan
23303;BME280;11820;48.738;9.092;2023-02-16T05:01:51;97222.38;;;6.09;nan
23303;BME280;11820;48.738;9.092;2023-02-16T05:04:17;97225.34;;;6.14;nan
23303;BME280;11820;48.738;9.092;2023-02-16T05:06:43;97227.06;;;6.23;nan
23303;BME280;11820;48.738;9.092;2023-02-16T05:09:08;97230.72;;;6.21;nan
23303;BME280;11820;48.738;9.092;2023-02-16T05:11:34;97222.59;;;6.25;nan
23303;BME280;11820;48.738;9.092;2023-02-16T05:14:21;97219.47;;;6.22;nan
23303;BME280;11820;48.738;9.092;2023-02-16T05:17:05;97227.19;;;6.22;nan
23303;BME280;11820;48.738;9.092;2023-02-16T05:19:30;97221.53;;;6.18;nan
23303;BME280;11820;48.738;9.092;2023-02-16T05:21:55;97218.69;;;6.21;nan
23303;BME280;11820;48.738;9.092;2023-02-16T05:24:21;97220.31;;;6.22;nan
23303;BME280;11820;48.738;9.092;2023-02-16T05:26:46;97224.53;;;6.14;nan
23303;BME280;11820;48.738;9.092;2023-02-16T05:29:11;97225.47;;;6.13;nan
23303;BME280;11820;48.738;9.092;2023-02-16T05:31:37;97226.53;;;6.20;nan
23303;BME280;11820;48.738;9.092;2023-02-16T05:34:02;97231.28;;;6.15;nan
23303;BME280;11820;48.738;9.092;2023-02-16T05:36:28;97226.44;;;6.12;nan
23303;BME280;11820;48.738;9.092;2023-02-16T05:38:53;97242.41;;;6.06;nan
23303;BME280;11820;48.738;9.092;2023-02-16T05:41:18;97229.66;;;6.14;nan
23303;BME280;11820;48.738;9.092;2023-02-16T05:43:51;97228.63;;;6.07;nan
23303;BME280;11820;48.738;9.092;2023-02-16T05:46:18;97229.38;;;6.17;nan
23303;BME280;11820;48.738;9.092;2023-02-16T05:48:43;97231.91;;;5.99;nan
23303;BME280;11820;48.738;9.092;2023-02-16T05:51:08;97237.06;;;5.90;nan
23303;BME280;11820;48.738;9.092;2023-02-16T05:53:34;97237.31;;;5.96;nan
23303;BME280;11820;48.738;9.092;2023-02-16T05:55:59;97239.72;;;5.98;nan
23303;BME280;11820;48.738;9.092;2023-02-16T05:58:24;97248.28;;;5.89;nan
23303;BME280;11820;48.738;9.092;2023-02-16T06:00:53;97253.88;;;5.56;nan
23303;BME280;11820;48.738;9.092;2023-02-16T06:03:18;97259.31;;;5.24;nan
23303;BME280;11820;48.738;9.092;2023-02-16T06:05:43;97261.19;;;4.84;nan
23303;BME280;11820;48.738;9.092;2023-02-16T06:08:09;97263.75;;;5.13;nan
23303;BME280;11820;48.738;9.092;2023-02-16T06:10:34;97258.63;;;5.51;nan
23303;BME280;11820;48.738;9.092;2023-02-16T06:12:59;97261.13;;;5.70;nan
23303;BME280;11820;48.738;9.092;2023-02-16T06:15:25;97270.84;;;5.85;nan
23303;BME280;11820;48.738;9.092;2023-02-16T06:17:50;97270.03;;;5.85;nan
23303;BME280;11820;48.738;9.092;2023-02-16T06:20:15;97279.06;;;5.89;nan
23303;BME280;11820;48.738;9.092;2023-02-16T06:22:40;97271.66;;;5.86;nan
23303;BME280;11820;48.738;9.092;2023-02-16T06:25:06;97284.19;;;5.89;nan
23303;BME280;11820;48.738;9.092;2023-02-16T06:27:31;97278.88;;;6.00;nan
23303;BME280;11820;48.738;9.092;2023-02-16T06:29:56;97280.78;;;5.98;nan
23303;BME280;11820;48.738;9.092;2023-02-16T06:32:22;97280.28;;;5.94;nan
23303;BME280;11820;48.738;9.092;2023-02-16T06:34:47;97285.38;;;6.04;nan
23303;BME280;11820;48.738;9.092;2023-02-16T06:37:13;97284.03;;;6.00;nan
23303;BME280;11820;48.738;9.092;2023-02-16T06:39:38;97281.59;;;6.08;nan
23303;BME280;11820;48.738;9.092;2023-02-16T06:42:03;97279.97;;;6.07;nan
23303;BME280;11820;48.738;9.092;2023-02-16T06:44:29;97273.22;;;6.06;nan
23303;BME280;11820;48.738;9.092;2023-02-16T06:46:54;97283.47;;;6.06;nan
23303;BME280;11820;48.738;9.092;2023-02-16T06:49:20;97271.03;;;6.11;nan
23303;BME280;11820;48.738;9.092;2023-02-16T06:51:46;97269.13;;;6.13;nan
23303;BME280;11820;48.738;9.092;2023-02-16T06:54:12;97274.56;;;6.00;nan
23303;BME280;11820;48.738;9.092;2023-02-16T06:56:38;97280.47;;;6.10;nan
23303;BME280;11820;48.738;9.092;2023-02-16T06:59:04;97279.84;;;5.99;nan
23303;BME280;11820;48.738;9.092;2023-02-16T07:01:29;97280.78;;;5.98;nan
23303;BME280;11820;48.738;9.092;2023-02-16T07:03:56;97289.41;;;6.06;nan
23303;BME280;11820;48.738;9.092;2023-02-16T07:06:23;97288.47;;;6.07;nan
23303;BME280;11820;48.738;9.092;2023-02-16T07:08:49;97290.91;;;6.09;nan
23303;BME280;11820;48.738;9.092;2023-02-16T07:11:15;97287.22;;;6.11;nan
23303;BME280;11820;48.738;9.092;2023-02-16T07:13:41;97289.94;;;6.10;nan
23303;BME280;11820;48.738;9.092;2023-02-16T07:16:06;97285.75;;;6.09;nan
23303;BME280;11820;48.738;9.092;2023-02-16T07:18:32;97289.66;;;6.13;nan
23303;BME280;11820;48.738;9.092;2023-02-16T07:20:58;97285.34;;;6.13;nan
23303;BME280;11820;48.738;9.092;2023-02-16T07:23:24;97291.56;;;6.11;nan
23303;BME280;11820;48.738;9.092;2023-02-16T07:25:49;97289.91;;;6.19;nan
23303;BME280;11820;48.738;9.092;2023-02-16T07:28:14;97297.09;;;6.16;nan
23303;BME280;11820;48.738;9.092;2023-02-16T07:30:40;97287.19;;;6.21;nan
23303;BME280;11820;48.738;9.092;2023-02-16T07:33:05;97293.00;;;6.23;nan
23303;BME280;11820;48.738;9.092;2023-02-16T07:35:32;97290.25;;;6.34;nan
23303;BME280;11820;48.738;9.092;2023-02-16T07:37:57;97295.09;;;6.37;nan
23303;BME280;11820;48.738;9.092;2023-02-16T07:40:23;97297.09;;;6.42;nan
23303;BME280;11820;48.738;9.092;2023-02-16T07:42:48;97287.50;;;6.44;nan
23303;BME280;11820;48.738;9.092;2023-02-16T07:45:14;97286.13;;;6.50;nan
23303;BME280;11820;48.738;9.092;2023-02-16T07:47:39;97296.94;;;6.53;nan
23303;BME280;11820;48.738;9.092;2023-02-16T07:50:05;97285.69;;;6.54;nan
23303;BME280;11820;48.738;9.092;2023-02-16T07:52:30;97294.44;;;6.61;nan
23303;BME280;11820;48.738;9.092;2023-02-16T07:54:56;97300.63;;;6.68;nan
23303;BME280;11820;48.738;9.092;2023-02-16T07:57:24;97301.00;;;6.73;nan
23303;BME280;11820;48.738;9.092;2023-02-16T07:59:50;97304.69;;;6.88;nan
23303;BME280;11820;48.738;9.092;2023-02-16T08:02:17;97305.50;;;6.89;nan
23303;BME280;11820;48.738;9.092;2023-02-16T08:04:43;97305.44;;;6.98;nan
23303;BME280;11820;48.738;9.092;2023-02-16T08:07:11;97309.44;;;7.10;nan
23303;BME280;11820;48.738;9.092;2023-02-16T08:09:37;97306.78;;;7.20;nan
23303;BME280;11820;48.738;9.092;2023-02-16T08:12:03;97307.28;;;7.23;nan
23303;BME280;11820;48.738;9.092;2023-02-16T08:14:28;97316.41;;;7.35;nan
23303;BME280;11820;48.738;9.092;2023-02-16T08:16:53;97309.41;;;7.45;nan
23303;BME280;11820;48.738;9.092;2023-02-16T08:19:19;97310.72;;;7.49;nan
23303;BME280;11820;48.738;9.092;2023-02-16T08:21:44;97315.56;;;7.52;nan
23303;BME280;11820;48.738;9.092;2023-02-16T08:24:13;97317.22;;;7.53;nan
23303;BME280;11820;48.738;9.092;2023-02-16T08:26:40;97316.91;;;7.56;nan
23303;BME280;11820;48.738;9.092;2023-02-16T08:29:08;97319.53;;;7.64;nan
23303;BME280;11820;48.738;9.092;2023-02-16T08:31:40;97322.78;;;7.66;nan
23303;BME280;11820;48.738;9.092;2023-02-16T08:34:06;97313.19;;;7.76;nan
23303;BME280;11820;48.738;9.092;2023-02-16T08:36:34;97312.91;;;7.79;nan
23303;BME280;11820;48.738;9.092;2023-02-16T08:39:01;97313.91;;;7.86;nan
23303;BME280;11820;48.738;9.092;2023-02-16T08:41:30;97316.19;;;7.89;nan
23303;BME280;11820;48.738;9.092;2023-02-16T08:43:56;97320.06;;;7.93;nan
23303;BME280;11820;48.738;9.092;2023-02-16T08:46:22;97322.69;;;8.01;nan
23303;BME280;11820;48.738;9.092;2023-02-16T08:48:47;97313.22;;;8.01;nan
23303;BME280;11820;48.738;9.092;2023-02-16T08:51:17;97316.00;;;8.08;nan
23303;BME280;11820;48.738;9.092;2023-02-16T08:53:44;97317.97;;;8.14;nan
23303;BME280;11820;48.738;9.092;2023-02-16T08:56:10;97314.03;;;8.27;nan
23303;BME280;11820;48.738;9.092;2023-02-16T08:58:36;97314.56;;;8.31;nan
23303;BME280;11820;48.738;9.092;2023-02-16T09:01:09;97324.72;;;8.40;nan
23303;BME280;11820;48.738;9.092;2023-02-16T09:03:35;97312.34;;;8.44;nan
23303;BME280;11820;48.738;9.092;2023-02-16T09:06:03;97314.31;;;8.50;nan
23303;BME280;11820;48.738;9.092;2023-02-16T09:08:30;97315.00;;;8.60;nan
23303;BME280;11820;48.738;9.092;2023-02-16T09:11:14;97313.44;;;8.75;nan
23303;BME280;11820;48.738;9.092;2023-02-16T09:13:40;97300.59;;;8.83;nan
23303;BME280;11820;48.738;9.092;2023-02-16T09:16:09;97297.38;;;8.97;nan
23303;BME280;11820;48.738;9.092;2023-02-16T09:18:36;97294.81;;;9.05;nan
23303;BME280;11820;48.738;9.092;2023-02-16T09:21:03;97305.00;;;9.14;nan
23303;BME280;11820;48.738;9.092;2023-02-16T09:23:31;97303.56;;;9.20;nan
23303;BME280;11820;48.738;9.092;2023-02-16T09:25:58;97306.13;;;9.28;nan
23303;BME280;11820;48.738;9.092;2023-02-16T09:28:24;97308.75;;;9.36;nan
23303;BME280;11820;48.738;9.092;2023-02-16T09:30:49;97306.31;;;9.42;nan
23303;BME280;11820;48.738;9.092;2023-02-16T09:33:14;97314.72;;;9.52;nan
23303;BME280;11820;48.738;9.092;2023-02-16T09:35:40;97311.81;;;9.55;nan
23303;BME280;11820;48.738;9.092;2023-02-16T09:38:05;97311.97;;;9.54;nan
23303;BME280;11820;48.738;9.092;2023-02-16T09:40:32;97311.00;;;9.70;nan
23303;BME280;11820;48.738;9.092;2023-02-16T09:45:40;97311.00;;;9.86;nan
23303;BME280;11820;48.738;9.092;2023-02-16T09:48:19;97306.31;;;9.98;nan
23303;BME280;11820;48.738;9.092;2023-02-16T09:50:47;97298.72;;;10.12;nan
23303;BME280;11820;48.738;9.092;2023-02-16T09:53:35;97302.22;;;10.27;nan
23303;BME280;11820;48.738;9.092;2023-02-16T09:59:03;97294.09;;;10.46;nan
23303;BME280;11820;48.738;9.092;2023-02-16T10:04:41;97294.94;;;10.77;nan
23303;BME280;11820;48.738;9.092;2023-02-16T10:09:51;97294.38;;;10.90;nan
23303;BME280;11820;48.738;9.092;2023-02-16T10:12:23;97293.03;;;11.02;nan
23303;BME280;11820;48.738;9.092;2023-02-16T10:14:53;97290.13;;;11.27;nan
23303;BME280;11820;48.738;9.092;2023-02-16T10:20:02;97289.66;;;11.68;nan
23303;BME280;11820;48.738;9.092;2023-02-16T10:22:37;97292.91;;;11.85;nan
23303;BME280;11820;48.738;9.092;2023-02-16T10:25:12;97286.88;;;12.07;nan
23303;BME280;11820;48.738;9.092;2023-02-16T10:27:42;97284.75;;;12.25;nan
23303;BME280;11820;48.738;9.092;2023-02-16T10:32:39;97279.72;;;12.96;nan
23303;BME280;11820;48.738;9.092;2023-02-16T10:35:15;97279.00;;;13.22;nan
23303;BME280;11820;48.738;9.092;2023-02-16T10:37:54;97275.06;;;13.47;nan
23303;BME280;11820;48.738;9.092;2023-02-16T10:46:04;97235.84;;;26.61;nan
23303;BME280;11820;48.738;9.092;2023-02-16T10:48:30;97238.28;;;26.22;nan
23303;BME280;11820;48.738;9.092;2023-02-16T10:51:02;97220.44;;;28.31;nan
23303;BME280;11820;48.738;9.092;2023-02-16T10:55:56;97231.59;;;25.25;nan
23303;BME280;11820;48.738;9.092;2023-02-16T10:58:25;97233.56;;;23.95;nan
23303;BME280;11820;48.738;9.092;2023-02-16T11:01:06;97242.41;;;22.41;nan
23303;BME280;11820;48.738;9.092;2023-02-16T11:03:38;97239.03;;;22.29;nan
23303;BME280;11820;48.738;9.092;2023-02-16T11:06:22;97240.72;;;22.35;nan
23303;BME280;11820;48.738;9.092;2023-02-16T11:08:52;97236.28;;;22.19;nan
23303;BME280;11820;48.738;9.092;2023-02-16T11:11:23;97233.38;;;21.54;nan
23303;BME280;11820;48.738;9.092;2023-02-16T11:13:57;97237.94;;;21.15;nan
23303;BME280;11820;48.738;9.092;2023-02-16T11:16:23;97229.22;;;21.42;nan
23303;BME280;11820;48.738;9.092;2023-02-16T11:19:18;97233.00;;;21.18;nan
23303;BME280;11820;48.738;9.092;2023-02-16T11:21:50;97223.59;;;22.16;nan
23303;BME280;11820;48.738;9.092;2023-02-16T11:24:29;97214.13;;;23.48;nan
23303;BME280;11820;48.738;9.092;2023-02-16T11:29:32;97196.38;;;28.88;nan
23303;BME280;11820;48.738;9.092;2023-02-16T11:31:58;97201.94;;;30.29;nan
23303;BME280;11820;48.738;9.092;2023-02-16T11:34:39;97188.44;;;31.50;nan
23303;BME280;11820;48.738;9.092;2023-02-16T11:37:12;97192.66;;;32.39;nan
23303;BME280;11820;48.738;9.092;2023-02-16T11:39:40;97194.28;;;32.87;nan
23303;BME280;11820;48.738;9.092;2023-02-16T11:42:44;97189.41;;;32.98;nan
23303;BME280;11820;48.738;9.092;2023-02-16T11:48:11;97187.69;;;33.10;nan
23303;BME280;11820;48.738;9.092;2023-02-16T11:50:40;97175.50;;;32.87;nan
23303;BME280;11820;48.738;9.092;2023-02-16T11:53:25;97165.75;;;35.99;nan
23303;BME280;11820;48.738;9.092;2023-02-16T11:56:09;97175.97;;;34.08;nan
23303;BME280;11820;48.738;9.092;2023-02-16T11:58:35;97174.00;;;31.73;nan
23303;BME280;11820;48.738;9.092;2023-02-16T12:01:21;97173.38;;;34.37;nan
23303;BME280;11820;48.738;9.092;2023-02-16T12:10:07;97150.09;;;32.76;nan
23303;BME280;11820;48.738;9.092;2023-02-16T12:25:54;97161.00;;;24.18;nan
23303;BME280;11820;48.738;9.092;2023-02-16T12:28:41;97154.16;;;22.70;nan
23303;BME280;11820;48.738;9.092;2023-02-16T12:31:21;97155.03;;;23.02;nan
23303;BME280;11820;48.738;9.092;2023-02-16T12:36:32;97144.94;;;22.94;nan
23303;BME280;11820;48.738;9.092;2023-02-16T12:39:40;97146.16;;;22.38;nan
23303;BME280;11820;48.738;9.092;2023-02-16T12:45:19;97141.16;;;21.49;nan
23303;BME280;11820;48.738;9.092;2023-02-16T12:50:29;97137.13;;;20.98;nan
23303;BME280;11820;48.738;9.092;2023-02-16T12:53:03;97140.38;;;19.98;nan
23303;BME280;11820;48.738;9.092;2023-02-16T12:55:42;97131.22;;;18.91;nan
23303;BME280;11820;48.738;9.092;2023-02-16T13:00:46;97120.28;;;19.92;nan
23303;BME280;11820;48.738;9.092;2023-02-16T13:03:33;97108.44;;;21.13;nan
23303;BME280;11820;48.738;9.092;2023-02-16T13:11:24;97103.44;;;21.11;nan
23303;BME280;11820;48.738;9.092;2023-02-16T13:13:59;97097.38;;;20.27;nan
23303;BME280;11820;48.738;9.092;2023-02-16T13:16:45;97099.97;;;19.87;nan
23303;BME280;11820;48.738;9.092;2023-02-16T13:19:13;97099.41;;;19.74;nan
23303;BME280;11820;48.738;9.092;2023-02-16T13:24:27;97103.97;;;19.33;nan
23303;BME280;11820;48.738;9.092;2023-02-16T13:36:26;97093.81;;;20.61;nan
23303;BME280;11820;48.738;9.092;2023-02-16T13:44:36;97086.56;;;20.00;nan
23303;BME280;11820;48.738;9.092;2023-02-16T13:47:05;97092.56;;;19.39;nan
23303;BME280;11820;48.738;9.092;2023-02-16T13:49:37;97094.50;;;19.20;nan
23303;BME280;11820;48.738;9.092;2023-02-16T13:52:10;97095.09;;;19.57;nan
23303;BME280;11820;48.738;9.092;2023-02-16T13:54:50;97098.94;;;19.20;nan
23303;BME280;11820;48.738;9.092;2023-02-16T14:06:35;97107.16;;;18.53;nan
23303;BME280;11820;48.738;9.092;2023-02-16T14:19:38;97117.03;;;18.39;nan
23303;BME280;11820;48.738;9.092;2023-02-16T14:22:09;97116.22;;;18.03;nan
23303;BME280;11820;48.738;9.092;2023-02-16T14:24:37;97126.38;;;17.02;nan
23303;BME280;11820;48.738;9.092;2023-02-16T14:27:05;97129.97;;;16.32;nan
23303;BME280;11820;48.738;9.092;2023-02-16T14:29:40;97126.88;;;15.92;nan
23303;BME280;11820;48.738;9.092;2023-02-16T14:34:53;97137.97;;;15.22;nan
23303;BME280;11820;48.738;9.092;2023-02-16T14:37:30;97139.38;;;14.99;nan
23303;BME280;11820;48.738;9.092;2023-02-16T14:40:17;97148.97;;;14.85;nan
23303;BME280;11820;48.738;9.092;2023-02-16T14:42:49;97145.69;;;14.51;nan
23303;BME280;11820;48.738;9.092;2023-02-16T14:45:36;97145.25;;;14.41;nan
23303;BME280;11820;48.738;9.092;2023-02-16T14:48:29;97159.56;;;14.18;nan
23303;BME280;11820;48.738;9.092;2023-02-16T14:51:26;97155.91;;;14.12;nan
23303;BME280;11820;48.738;9.092;2023-02-16T14:54:26;97158.78;;;14.17;nan
23303;BME280;11820;48.738;9.092;2023-02-16T14:57:03;97154.69;;;14.08;nan
23303;BME280;11820;48.738;9.092;2023-02-16T14:59:36;97161.81;;;13.93;nan
23303;BME280;11820;48.738;9.092;2023-02-16T15:02:27;97150.81;;;13.91;nan
23303;BME280;11820;48.738;9.092;2023-02-16T15:04:53;97152.00;;;13.89;nan
23303;BME280;11820;48.738;9.092;2023-02-16T15:07:18;97145.75;;;13.83;nan
23303;BME280;11820;48.738;9.092;2023-02-16T15:09:46;97151.34;;;13.80;nan
23303;BME280;11820;48.738;9.092;2023-02-16T15:12:13;97153.22;;;13.59;nan
23303;BME280;11820;48.738;9.092;2023-02-16T15:14:55;97150.03;;;13.63;nan
23303;BME280;11820;48.738;9.092;2023-02-16T15:17:34;97150.41;;;13.60;nan
23303;BME280;11820;48.738;9.092;2023-02-16T15:20:19;97147.97;;;13.52;nan
23303;BME280;11820;48.738;9.092;2023-02-16T15:22:52;97143.16;;;13.49;nan
23303;BME280;11820;48.738;9.092;2023-02-16T15:25:25;97127.56;;;13.49;nan
23303;BME280;11820;48.738;9.092;2023-02-16T15:27:56;97131.97;;;13.55;nan
23303;BME280;11820;48.738;9.092;2023-02-16T15:30:32;97127.94;;;13.46;nan
23303;BME280;11820;48.738;9.092;2023-02-16T15:33:02;97125.09;;;13.41;nan
23303;BME280;11820;48.738;9.092;2023-02-16T15:35:33;97118.44;;;13.32;nan
23303;BME280;11820;48.738;9.092;2023-02-16T15:38:04;97123.84;;;13.31;nan
23303;BME280;11820;48.738;9.092;2023-02-16T15:40:30;97116.41;;;13.28;nan
23303;BME280;11820;48.738;9.092;2023-02-16T15:43:07;97108.56;;;13.21;nan
23303;BME280;11820;48.738;9.092;2023-02-16T15:45:35;97121.66;;;13.13;nan
23303;BME280;11820;48.738;9.092;2023-02-16T15:50:46;97128.81;;;13.05;nan
23303;BME280;11820;48.738;9.092;2023-02-16T15:53:13;97125.91;;;12.94;nan
23303;BME280;11820;48.738;9.092;2023-02-16T15:55:45;97122.69;;;12.92;nan